Lawyersville, New York
Current Conditions -  °F | °C
As of 12:35 AM on Friday 28 Nov 2014 (Local Time) from KNY0 Reporting Station
Overcast Overcast  
Wind Chill: 25°   Ceiling: 2900
Heat Index: 25°   Visibility: 7mi
Dew Point: 22°   Wind: 3mph
Humidity: 90%   Direction: 260°W
Pressure: 30"   Gusts: NA
Location:  42.6995°N, 74.5108°W
Report Text: KNY0 280535Z AUTO 26003KT 7SM BKN029 BKN034 OVC042 M04/M05 A3000 RMK AO2 T10411055
Loading
Personal Weather Stations






























Interactive Weather Map New forecast layout! Learn more

10-Day Weather Forecast

Advertisements
Track Severe Weather on mobile